sensor_id;sensor_type;location;lat;lon;timestamp;P1;durP1;ratioP1;P2;durP2;ratioP2
25419;SDS011;13354;48.174;11.566;2023-11-18T00:01:49;9.38;;;6.82;;
25419;SDS011;13354;48.174;11.566;2023-11-18T00:04:14;7.70;;;6.88;;
25419;SDS011;13354;48.174;11.566;2023-11-18T00:06:43;8.68;;;7.85;;
25419;SDS011;13354;48.174;11.566;2023-11-18T00:09:10;8.82;;;7.25;;
25419;SDS011;13354;48.174;11.566;2023-11-18T00:11:38;7.82;;;6.65;;
25419;SDS011;13354;48.174;11.566;2023-11-18T00:14:03;8.65;;;7.40;;
25419;SDS011;13354;48.174;11.566;2023-11-18T00:16:29;8.68;;;7.22;;
25419;SDS011;13354;48.174;11.566;2023-11-18T00:18:55;8.90;;;7.60;;
25419;SDS011;13354;48.174;11.566;2023-11-18T00:21:20;8.45;;;6.97;;
25419;SDS011;13354;48.174;11.566;2023-11-18T00:23:45;7.60;;;6.80;;
25419;SDS011;13354;48.174;11.566;2023-11-18T00:26:11;7.90;;;7.10;;
25419;SDS011;13354;48.174;11.566;2023-11-18T00:28:38;7.80;;;6.80;;
25419;SDS011;13354;48.174;11.566;2023-11-18T00:31:03;8.00;;;6.97;;
25419;SDS011;13354;48.174;11.566;2023-11-18T00:33:29;7.90;;;7.10;;
25419;SDS011;13354;48.174;11.566;2023-11-18T00:35:55;7.47;;;6.63;;
25419;SDS011;13354;48.174;11.566;2023-11-18T00:38:20;8.05;;;7.25;;
25419;SDS011;13354;48.174;11.566;2023-11-18T00:40:45;8.27;;;7.47;;
25419;SDS011;13354;48.174;11.566;2023-11-18T00:43:11;7.68;;;6.90;;
25419;SDS011;13354;48.174;11.566;2023-11-18T00:45:36;7.55;;;6.38;;
25419;SDS011;13354;48.174;11.566;2023-11-18T00:48:01;7.90;;;5.85;;
25419;SDS011;13354;48.174;11.566;2023-11-18T00:50:29;6.18;;;5.55;;
25419;SDS011;13354;48.174;11.566;2023-11-18T00:52:54;7.28;;;5.93;;
25419;SDS011;13354;48.174;11.566;2023-11-18T00:55:20;6.82;;;6.07;;
25419;SDS011;13354;48.174;11.566;2023-11-18T00:57:45;7.05;;;5.38;;
25419;SDS011;13354;48.174;11.566;2023-11-18T01:00:11;6.43;;;5.80;;
25419;SDS011;13354;48.174;11.566;2023-11-18T01:02:44;5.28;;;4.78;;
25419;SDS011;13354;48.174;11.566;2023-11-18T01:05:11;5.03;;;4.50;;
25419;SDS011;13354;48.174;11.566;2023-11-18T01:07:38;4.97;;;4.47;;
25419;SDS011;13354;48.174;11.566;2023-11-18T01:10:05;4.72;;;4.30;;
25419;SDS011;13354;48.174;11.566;2023-11-18T01:12:31;4.35;;;3.95;;
25419;SDS011;13354;48.174;11.566;2023-11-18T01:14:56;4.10;;;3.70;;
25419;SDS011;13354;48.174;11.566;2023-11-18T01:17:22;4.47;;;4.07;;
25419;SDS011;13354;48.174;11.566;2023-11-18T01:19:48;4.30;;;3.67;;
25419;SDS011;13354;48.174;11.566;2023-11-18T01:22:14;4.35;;;3.95;;
25419;SDS011;13354;48.174;11.566;2023-11-18T01:24:39;3.97;;;3.58;;
25419;SDS011;13354;48.174;11.566;2023-11-18T01:27:05;3.92;;;3.40;;
25419;SDS011;13354;48.174;11.566;2023-11-18T01:29:32;3.72;;;3.42;;
25419;SDS011;13354;48.174;11.566;2023-11-18T01:31:58;4.20;;;3.80;;
25419;SDS011;13354;48.174;11.566;2023-11-18T01:34:23;3.55;;;3.25;;
25419;SDS011;13354;48.174;11.566;2023-11-18T01:36:50;3.47;;;3.17;;
25419;SDS011;13354;48.174;11.566;2023-11-18T01:39:16;3.67;;;3.33;;
25419;SDS011;13354;48.174;11.566;2023-11-18T01:41:43;3.08;;;2.80;;
25419;SDS011;13354;48.174;11.566;2023-11-18T01:44:09;3.40;;;3.10;;
25419;SDS011;13354;48.174;11.566;2023-11-18T01:46:35;3.15;;;2.85;;
25419;SDS011;13354;48.174;11.566;2023-11-18T01:49:01;3.40;;;3.10;;
25419;SDS011;13354;48.174;11.566;2023-11-18T01:51:29;3.30;;;3.00;;
25419;SDS011;13354;48.174;11.566;2023-11-18T01:53:55;3.40;;;3.10;;
25419;SDS011;13354;48.174;11.566;2023-11-18T01:56:24;3.80;;;3.15;;
25419;SDS011;13354;48.174;11.566;2023-11-18T01:58:50;3.65;;;2.97;;
25419;SDS011;13354;48.174;11.566;2023-11-18T02:01:16;2.85;;;2.65;;
25419;SDS011;13354;48.174;11.566;2023-11-18T02:03:43;2.75;;;2.55;;
25419;SDS011;13354;48.174;11.566;2023-11-18T02:06:08;3.92;;;3.22;;
25419;SDS011;13354;48.174;11.566;2023-11-18T02:08:35;3.08;;;2.78;;
25419;SDS011;13354;48.174;11.566;2023-11-18T02:11:06;3.20;;;2.90;;
25419;SDS011;13354;48.174;11.566;2023-11-18T02:13:40;3.30;;;3.00;;
25419;SDS011;13354;48.174;11.566;2023-11-18T02:16:09;3.40;;;3.10;;
25419;SDS011;13354;48.174;11.566;2023-11-18T02:18:36;3.67;;;3.38;;
25419;SDS011;13354;48.174;11.566;2023-11-18T02:21:05;3.50;;;3.20;;
25419;SDS011;13354;48.174;11.566;2023-11-18T02:23:34;3.22;;;2.92;;
25419;SDS011;13354;48.174;11.566;2023-11-18T02:26:00;3.13;;;2.92;;
25419;SDS011;13354;48.174;11.566;2023-11-18T02:28:26;3.25;;;2.95;;
25419;SDS011;13354;48.174;11.566;2023-11-18T02:30:54;4.18;;;3.78;;
25419;SDS011;13354;48.174;11.566;2023-11-18T02:33:32;3.65;;;3.35;;
25419;SDS011;13354;48.174;11.566;2023-11-18T02:36:05;3.75;;;3.45;;
25419;SDS011;13354;48.174;11.566;2023-11-18T02:38:35;3.40;;;3.10;;
25419;SDS011;13354;48.174;11.566;2023-11-18T02:41:09;4.03;;;3.55;;
25419;SDS011;13354;48.174;11.566;2023-11-18T02:43:37;3.50;;;3.20;;
25419;SDS011;13354;48.174;11.566;2023-11-18T02:46:05;3.70;;;3.40;;
25419;SDS011;13354;48.174;11.566;2023-11-18T02:48:32;3.47;;;3.17;;
25419;SDS011;13354;48.174;11.566;2023-11-18T02:50:57;3.60;;;3.30;;
25419;SDS011;13354;48.174;11.566;2023-11-18T02:53:23;5.75;;;3.08;;
25419;SDS011;13354;48.174;11.566;2023-11-18T02:55:50;3.60;;;3.08;;
25419;SDS011;13354;48.174;11.566;2023-11-18T02:58:17;3.53;;;3.22;;
25419;SDS011;13354;48.174;11.566;2023-11-18T03:00:42;3.72;;;3.40;;
25419;SDS011;13354;48.174;11.566;2023-11-18T03:03:09;4.20;;;3.80;;
25419;SDS011;13354;48.174;11.566;2023-11-18T03:05:36;3.40;;;3.10;;
25419;SDS011;13354;48.174;11.566;2023-11-18T03:08:01;3.40;;;3.10;;
25419;SDS011;13354;48.174;11.566;2023-11-18T03:10:28;3.50;;;3.20;;
25419;SDS011;13354;48.174;11.566;2023-11-18T03:12:55;3.40;;;3.10;;
25419;SDS011;13354;48.174;11.566;2023-11-18T03:15:22;3.70;;;3.40;;
25419;SDS011;13354;48.174;11.566;2023-11-18T03:17:48;3.75;;;3.22;;
25419;SDS011;13354;48.174;11.566;2023-11-18T03:20:18;3.63;;;3.13;;
25419;SDS011;13354;48.174;11.566;2023-11-18T03:22:45;3.70;;;3.17;;
25419;SDS011;13354;48.174;11.566;2023-11-18T03:25:13;3.50;;;3.20;;
25419;SDS011;13354;48.174;11.566;2023-11-18T03:27:39;3.38;;;3.08;;
25419;SDS011;13354;48.174;11.566;2023-11-18T03:30:05;3.60;;;3.30;;
25419;SDS011;13354;48.174;11.566;2023-11-18T03:32:33;3.42;;;3.13;;
25419;SDS011;13354;48.174;11.566;2023-11-18T03:34:58;3.50;;;3.20;;
25419;SDS011;13354;48.174;11.566;2023-11-18T03:37:24;3.53;;;3.22;;
25419;SDS011;13354;48.174;11.566;2023-11-18T03:39:51;4.88;;;3.28;;
25419;SDS011;13354;48.174;11.566;2023-11-18T03:42:17;3.78;;;3.33;;
25419;SDS011;13354;48.174;11.566;2023-11-18T03:44:42;3.33;;;3.03;;
25419;SDS011;13354;48.174;11.566;2023-11-18T03:47:07;3.80;;;3.40;;
25419;SDS011;13354;48.174;11.566;2023-11-18T03:49:33;3.70;;;3.22;;
25419;SDS011;13354;48.174;11.566;2023-11-18T03:51:58;3.50;;;3.20;;
25419;SDS011;13354;48.174;11.566;2023-11-18T03:54:24;4.05;;;3.30;;
25419;SDS011;13354;48.174;11.566;2023-11-18T03:56:49;4.18;;;3.75;;
25419;SDS011;13354;48.174;11.566;2023-11-18T03:59:15;3.78;;;3.47;;
25419;SDS011;13354;48.174;11.566;2023-11-18T04:01:40;3.90;;;3.50;;
25419;SDS011;13354;48.174;11.566;2023-11-18T04:04:05;3.60;;;3.30;;
25419;SDS011;13354;48.174;11.566;2023-11-18T04:06:31;4.32;;;3.78;;
25419;SDS011;13354;48.174;11.566;2023-11-18T04:08:56;6.55;;;3.67;;
25419;SDS011;13354;48.174;11.566;2023-11-18T04:11:22;5.07;;;4.57;;
25419;SDS011;13354;48.174;11.566;2023-11-18T04:13:47;4.30;;;3.90;;
25419;SDS011;13354;48.174;11.566;2023-11-18T04:16:13;4.35;;;3.95;;
25419;SDS011;13354;48.174;11.566;2023-11-18T04:18:40;5.13;;;4.63;;
25419;SDS011;13354;48.174;11.566;2023-11-18T04:21:07;4.80;;;4.32;;
25419;SDS011;13354;48.174;11.566;2023-11-18T04:23:34;5.03;;;4.53;;
25419;SDS011;13354;48.174;11.566;2023-11-18T04:26:05;5.82;;;4.55;;
25419;SDS011;13354;48.174;11.566;2023-11-18T04:28:32;5.53;;;4.57;;
25419;SDS011;13354;48.174;11.566;2023-11-18T04:30:58;5.20;;;4.70;;
25419;SDS011;13354;48.174;11.566;2023-11-18T04:33:23;4.80;;;4.30;;
25419;SDS011;13354;48.174;11.566;2023-11-18T04:35:49;5.60;;;4.10;;
25419;SDS011;13354;48.174;11.566;2023-11-18T04:38:16;4.40;;;3.97;;
25419;SDS011;13354;48.174;11.566;2023-11-18T04:40:41;6.22;;;4.85;;
25419;SDS011;13354;48.174;11.566;2023-11-18T04:43:09;4.95;;;4.45;;
25419;SDS011;13354;48.174;11.566;2023-11-18T04:45:35;4.85;;;4.35;;
25419;SDS011;13354;48.174;11.566;2023-11-18T04:48:01;4.47;;;4.03;;
25419;SDS011;13354;48.174;11.566;2023-11-18T04:50:27;5.80;;;4.35;;
25419;SDS011;13354;48.174;11.566;2023-11-18T04:52:55;4.80;;;3.92;;
25419;SDS011;13354;48.174;11.566;2023-11-18T04:55:20;4.85;;;4.35;;
25419;SDS011;13354;48.174;11.566;2023-11-18T04:57:46;5.13;;;4.60;;
25419;SDS011;13354;48.174;11.566;2023-11-18T05:00:11;4.95;;;4.20;;
25419;SDS011;13354;48.174;11.566;2023-11-18T05:02:41;6.35;;;4.90;;
25419;SDS011;13354;48.174;11.566;2023-11-18T05:05:07;5.00;;;4.55;;
25419;SDS011;13354;48.174;11.566;2023-11-18T05:07:33;5.25;;;4.75;;
25419;SDS011;13354;48.174;11.566;2023-11-18T05:09:59;5.25;;;4.57;;
25419;SDS011;13354;48.174;11.566;2023-11-18T05:12:25;4.93;;;4.43;;
25419;SDS011;13354;48.174;11.566;2023-11-18T05:14:51;5.57;;;4.53;;
25419;SDS011;13354;48.174;11.566;2023-11-18T05:17:16;5.28;;;4.80;;
25419;SDS011;13354;48.174;11.566;2023-11-18T05:19:42;4.38;;;3.97;;
25419;SDS011;13354;48.174;11.566;2023-11-18T05:22:08;5.32;;;4.47;;
25419;SDS011;13354;48.174;11.566;2023-11-18T05:24:34;4.93;;;4.43;;
25419;SDS011;13354;48.174;11.566;2023-11-18T05:27:00;5.40;;;4.32;;
25419;SDS011;13354;48.174;11.566;2023-11-18T05:29:27;6.50;;;4.40;;
25419;SDS011;13354;48.174;11.566;2023-11-18T05:31:53;5.47;;;4.72;;
25419;SDS011;13354;48.174;11.566;2023-11-18T05:34:19;4.40;;;4.00;;
25419;SDS011;13354;48.174;11.566;2023-11-18T05:36:46;5.75;;;4.30;;
25419;SDS011;13354;48.174;11.566;2023-11-18T05:39:11;4.53;;;4.05;;
25419;SDS011;13354;48.174;11.566;2023-11-18T05:41:37;5.40;;;4.55;;
25419;SDS011;13354;48.174;11.566;2023-11-18T05:44:05;5.05;;;4.55;;
25419;SDS011;13354;48.174;11.566;2023-11-18T05:46:31;5.47;;;4.32;;
25419;SDS011;13354;48.174;11.566;2023-11-18T05:49:01;4.90;;;4.40;;
25419;SDS011;13354;48.174;11.566;2023-11-18T05:51:27;5.00;;;4.38;;
25419;SDS011;13354;48.174;11.566;2023-11-18T05:53:54;8.00;;;6.00;;
25419;SDS011;13354;48.174;11.566;2023-11-18T05:56:20;9.45;;;6.13;;
25419;SDS011;13354;48.174;11.566;2023-11-18T05:58:49;7.97;;;6.53;;
25419;SDS011;13354;48.174;11.566;2023-11-18T06:01:15;9.00;;;6.57;;
25419;SDS011;13354;48.174;11.566;2023-11-18T06:03:42;7.85;;;5.70;;
25419;SDS011;13354;48.174;11.566;2023-11-18T06:06:09;6.50;;;5.75;;
25419;SDS011;13354;48.174;11.566;2023-11-18T06:08:35;6.68;;;5.40;;
25419;SDS011;13354;48.174;11.566;2023-11-18T06:11:05;5.80;;;5.20;;
25419;SDS011;13354;48.174;11.566;2023-11-18T06:13:38;5.75;;;4.88;;
25419;SDS011;13354;48.174;11.566;2023-11-18T06:16:09;6.25;;;5.63;;
25419;SDS011;13354;48.174;11.566;2023-11-18T06:18:39;5.35;;;4.80;;
25419;SDS011;13354;48.174;11.566;2023-11-18T06:21:06;5.57;;;4.97;;
25419;SDS011;13354;48.174;11.566;2023-11-18T06:23:31;6.22;;;5.40;;
25419;SDS011;13354;48.174;11.566;2023-11-18T06:25:58;6.28;;;5.43;;
25419;SDS011;13354;48.174;11.566;2023-11-18T06:28:25;5.53;;;4.88;;
25419;SDS011;13354;48.174;11.566;2023-11-18T06:30:51;6.13;;;5.18;;
25419;SDS011;13354;48.174;11.566;2023-11-18T06:33:16;6.13;;;5.25;;
25419;SDS011;13354;48.174;11.566;2023-11-18T06:35:42;6.25;;;4.85;;
25419;SDS011;13354;48.174;11.566;2023-11-18T06:38:10;4.97;;;4.47;;
25419;SDS011;13354;48.174;11.566;2023-11-18T06:40:38;5.63;;;5.03;;
25419;SDS011;13354;48.174;11.566;2023-11-18T06:43:03;7.15;;;5.13;;
25419;SDS011;13354;48.174;11.566;2023-11-18T06:45:35;5.03;;;4.53;;
25419;SDS011;13354;48.174;11.566;2023-11-18T06:48:02;5.20;;;4.70;;
25419;SDS011;13354;48.174;11.566;2023-11-18T06:50:30;5.10;;;4.60;;
25419;SDS011;13354;48.174;11.566;2023-11-18T06:52:56;5.85;;;5.13;;
25419;SDS011;13354;48.174;11.566;2023-11-18T06:55:22;7.18;;;4.85;;
25419;SDS011;13354;48.174;11.566;2023-11-18T06:57:47;6.43;;;5.18;;
25419;SDS011;13354;48.174;11.566;2023-11-18T07:00:13;6.05;;;5.00;;
25419;SDS011;13354;48.174;11.566;2023-11-18T07:02:40;6.90;;;4.72;;
25419;SDS011;13354;48.174;11.566;2023-11-18T07:05:06;5.75;;;4.88;;
25419;SDS011;13354;48.174;11.566;2023-11-18T07:07:31;5.80;;;4.93;;
25419;SDS011;13354;48.174;11.566;2023-11-18T07:09:57;5.85;;;5.00;;
25419;SDS011;13354;48.174;11.566;2023-11-18T07:12:22;5.57;;;4.78;;
25419;SDS011;13354;48.174;11.566;2023-11-18T07:14:48;7.20;;;5.32;;
25419;SDS011;13354;48.174;11.566;2023-11-18T07:17:14;5.30;;;4.70;;
25419;SDS011;13354;48.174;11.566;2023-11-18T07:19:39;5.40;;;4.75;;
25419;SDS011;13354;48.174;11.566;2023-11-18T07:22:05;5.10;;;4.60;;
25419;SDS011;13354;48.174;11.566;2023-11-18T07:24:31;6.22;;;5.00;;
25419;SDS011;13354;48.174;11.566;2023-11-18T07:26:57;6.97;;;4.80;;
25419;SDS011;13354;48.174;11.566;2023-11-18T07:29:24;6.07;;;4.85;;
25419;SDS011;13354;48.174;11.566;2023-11-18T07:31:50;5.50;;;4.90;;
25419;SDS011;13354;48.174;11.566;2023-11-18T07:34:15;5.50;;;5.00;;
25419;SDS011;13354;48.174;11.566;2023-11-18T07:36:41;6.38;;;5.28;;
25419;SDS011;13354;48.174;11.566;2023-11-18T07:39:06;6.38;;;5.60;;
25419;SDS011;13354;48.174;11.566;2023-11-18T07:41:40;5.05;;;4.25;;
25419;SDS011;13354;48.174;11.566;2023-11-18T07:44:06;6.70;;;4.78;;
25419;SDS011;13354;48.174;11.566;2023-11-18T07:46:32;6.80;;;5.25;;
25419;SDS011;13354;48.174;11.566;2023-11-18T07:48:57;6.13;;;4.90;;
25419;SDS011;13354;48.174;11.566;2023-11-18T07:51:23;5.32;;;4.65;;
25419;SDS011;13354;48.174;11.566;2023-11-18T07:53:49;6.55;;;4.88;;
25419;SDS011;13354;48.174;11.566;2023-11-18T07:56:15;5.43;;;4.35;;
25419;SDS011;13354;48.174;11.566;2023-11-18T07:58:44;5.78;;;5.18;;
25419;SDS011;13354;48.174;11.566;2023-11-18T08:01:13;6.47;;;5.22;;
25419;SDS011;13354;48.174;11.566;2023-11-18T08:03:41;5.07;;;4.57;;
25419;SDS011;13354;48.174;11.566;2023-11-18T08:06:07;5.97;;;5.30;;
25419;SDS011;13354;48.174;11.566;2023-11-18T08:08:33;5.47;;;4.97;;
25419;SDS011;13354;48.174;11.566;2023-11-18T08:10:59;4.82;;;4.30;;
25419;SDS011;13354;48.174;11.566;2023-11-18T08:13:25;5.70;;;4.80;;
25419;SDS011;13354;48.174;11.566;2023-11-18T08:15:51;5.45;;;4.63;;
25419;SDS011;13354;48.174;11.566;2023-11-18T08:18:17;4.90;;;4.10;;
25419;SDS011;13354;48.174;11.566;2023-11-18T08:20:43;5.82;;;4.80;;
25419;SDS011;13354;48.174;11.566;2023-11-18T08:23:08;4.82;;;4.30;;
25419;SDS011;13354;48.174;11.566;2023-11-18T08:25:34;5.85;;;4.30;;
25419;SDS011;13354;48.174;11.566;2023-11-18T08:28:00;5.85;;;4.20;;
25419;SDS011;13354;48.174;11.566;2023-11-18T08:30:26;6.57;;;4.32;;
25419;SDS011;13354;48.174;11.566;2023-11-18T08:32:52;5.15;;;4.63;;
25419;SDS011;13354;48.174;11.566;2023-11-18T08:35:17;4.97;;;4.03;;
25419;SDS011;13354;48.174;11.566;2023-11-18T08:37:43;6.75;;;4.72;;
25419;SDS011;13354;48.174;11.566;2023-11-18T08:40:09;4.80;;;4.10;;
25419;SDS011;13354;48.174;11.566;2023-11-18T08:42:42;4.72;;;4.32;;
25419;SDS011;13354;48.174;11.566;2023-11-18T08:45:13;4.63;;;4.15;;
25419;SDS011;13354;48.174;11.566;2023-11-18T08:47:42;4.47;;;4.07;;
25419;SDS011;13354;48.174;11.566;2023-11-18T08:50:08;4.55;;;3.95;;
25419;SDS011;13354;48.174;11.566;2023-11-18T08:52:37;4.80;;;4.05;;
25419;SDS011;13354;48.174;11.566;2023-11-18T08:55:02;3.83;;;3.53;;
25419;SDS011;13354;48.174;11.566;2023-11-18T08:57:52;4.20;;;3.63;;
25419;SDS011;13354;48.174;11.566;2023-11-18T09:00:23;5.07;;;3.95;;
25419;SDS011;13354;48.174;11.566;2023-11-18T09:03:15;5.10;;;3.60;;
25419;SDS011;13354;48.174;11.566;2023-11-18T09:06:03;5.72;;;3.78;;
25419;SDS011;13354;48.174;11.566;2023-11-18T09:08:31;3.67;;;3.35;;
25419;SDS011;13354;48.174;11.566;2023-11-18T09:11:00;4.05;;;3.65;;
25419;SDS011;13354;48.174;11.566;2023-11-18T09:13:27;4.00;;;3.47;;
25419;SDS011;13354;48.174;11.566;2023-11-18T09:15:59;4.07;;;3.67;;
25419;SDS011;13354;48.174;11.566;2023-11-18T09:18:29;3.28;;;2.97;;
25419;SDS011;13354;48.174;11.566;2023-11-18T09:21:00;4.78;;;3.75;;
25419;SDS011;13354;48.174;11.566;2023-11-18T09:23:26;3.80;;;3.40;;
25419;SDS011;13354;48.174;11.566;2023-11-18T09:25:53;5.13;;;3.70;;
25419;SDS011;13354;48.174;11.566;2023-11-18T09:28:19;3.58;;;3.28;;
25419;SDS011;13354;48.174;11.566;2023-11-18T09:30:45;3.92;;;3.50;;
25419;SDS011;13354;48.174;11.566;2023-11-18T09:33:17;3.92;;;2.88;;
25419;SDS011;13354;48.174;11.566;2023-11-18T09:35:51;3.50;;;3.20;;
25419;SDS011;13354;48.174;11.566;2023-11-18T09:38:17;3.45;;;2.70;;
25419;SDS011;13354;48.174;11.566;2023-11-18T09:40:42;3.45;;;2.92;;
25419;SDS011;13354;48.174;11.566;2023-11-18T09:43:11;3.38;;;2.63;;
25419;SDS011;13354;48.174;11.566;2023-11-18T09:45:39;3.25;;;2.55;;
25419;SDS011;13354;48.174;11.566;2023-11-18T09:48:04;2.90;;;2.60;;
25419;SDS011;13354;48.174;11.566;2023-11-18T09:50:32;2.45;;;2.25;;
25419;SDS011;13354;48.174;11.566;2023-11-18T09:52:58;2.90;;;2.47;;
25419;SDS011;13354;48.174;11.566;2023-11-18T09:55:45;3.47;;;2.83;;
25419;SDS011;13354;48.174;11.566;2023-11-18T09:58:42;2.88;;;2.50;;
25419;SDS011;13354;48.174;11.566;2023-11-18T10:01:14;3.63;;;2.22;;
25419;SDS011;13354;48.174;11.566;2023-11-18T10:03:43;2.10;;;1.90;;
25419;SDS011;13354;48.174;11.566;2023-11-18T10:06:11;2.50;;;2.22;;
25419;SDS011;13354;48.174;11.566;2023-11-18T10:08:40;2.55;;;2.35;;
25419;SDS011;13354;48.174;11.566;2023-11-18T10:11:05;2.42;;;2.05;;
25419;SDS011;13354;48.174;11.566;2023-11-18T10:13:34;2.63;;;2.35;;
25419;SDS011;13354;48.174;11.566;2023-11-18T10:16:05;3.28;;;2.03;;
25419;SDS011;13354;48.174;11.566;2023-11-18T10:18:31;3.42;;;1.88;;
25419;SDS011;13354;48.174;11.566;2023-11-18T10:21:02;5.93;;;4.70;;
25419;SDS011;13354;48.174;11.566;2023-11-18T10:23:29;3.55;;;2.30;;
25419;SDS011;13354;48.174;11.566;2023-11-18T10:25:59;1.95;;;1.70;;
25419;SDS011;13354;48.174;11.566;2023-11-18T10:28:29;2.45;;;1.83;;
25419;SDS011;13354;48.174;11.566;2023-11-18T10:31:02;2.58;;;1.80;;
25419;SDS011;13354;48.174;11.566;2023-11-18T10:33:31;1.92;;;1.42;;
25419;SDS011;13354;48.174;11.566;2023-11-18T10:35:58;2.10;;;1.63;;
25419;SDS011;13354;48.174;11.566;2023-11-18T10:38:28;3.03;;;1.60;;
25419;SDS011;13354;48.174;11.566;2023-11-18T10:40:55;2.35;;;1.50;;
25419;SDS011;13354;48.174;11.566;2023-11-18T10:43:22;1.40;;;1.27;;
25419;SDS011;13354;48.174;11.566;2023-11-18T10:46:06;3.60;;;1.38;;
25419;SDS011;13354;48.174;11.566;2023-11-18T10:48:39;1.50;;;1.38;;
25419;SDS011;13354;48.174;11.566;2023-11-18T10:51:12;1.30;;;1.20;;
25419;SDS011;13354;48.174;11.566;2023-11-18T10:53:42;1.55;;;1.30;;
25419;SDS011;13354;48.174;11.566;2023-11-18T10:58:51;1.70;;;1.38;;
25419;SDS011;13354;48.174;11.566;2023-11-18T11:01:30;2.05;;;1.20;;
25419;SDS011;13354;48.174;11.566;2023-11-18T11:03:57;1.35;;;1.25;;
25419;SDS011;13354;48.174;11.566;2023-11-18T11:06:23;1.90;;;1.40;;
25419;SDS011;13354;48.174;11.566;2023-11-18T11:08:50;1.23;;;1.10;;
25419;SDS011;13354;48.174;11.566;2023-11-18T11:11:21;1.52;;;1.30;;
25419;SDS011;13354;48.174;11.566;2023-11-18T11:13:58;1.30;;;1.05;;
25419;SDS011;13354;48.174;11.566;2023-11-18T11:16:28;1.70;;;1.20;;
25419;SDS011;13354;48.174;11.566;2023-11-18T11:19:04;1.65;;;1.00;;
25419;SDS011;13354;48.174;11.566;2023-11-18T11:21:37;1.75;;;0.80;;
25419;SDS011;13354;48.174;11.566;2023-11-18T11:24:15;1.55;;;0.90;;
25419;SDS011;13354;48.174;11.566;2023-11-18T11:27:04;2.70;;;0.95;;
25419;SDS011;13354;48.174;11.566;2023-11-18T11:32:11;2.60;;;0.77;;
25419;SDS011;13354;48.174;11.566;2023-11-18T11:37:44;1.17;;;0.73;;
25419;SDS011;13354;48.174;11.566;2023-11-18T11:40:10;1.02;;;0.88;;
25419;SDS011;13354;48.174;11.566;2023-11-18T11:42:46;0.90;;;0.75;;
25419;SDS011;13354;48.174;11.566;2023-11-18T11:45:15;1.35;;;0.85;;
25419;SDS011;13354;48.174;11.566;2023-11-18T11:47:54;2.20;;;0.85;;
25419;SDS011;13354;48.174;11.566;2023-11-18T11:50:54;1.27;;;0.80;;
25419;SDS011;13354;48.174;11.566;2023-11-18T11:53:30;1.02;;;0.90;;
25419;SDS011;13354;48.174;11.566;2023-11-18T11:56:01;0.80;;;0.60;;
25419;SDS011;13354;48.174;11.566;2023-11-18T11:58:38;2.03;;;0.90;;
25419;SDS011;13354;48.174;11.566;2023-11-18T12:03:43;2.58;;;0.77;;
25419;SDS011;13354;48.174;11.566;2023-11-18T12:06:13;2.45;;;0.85;;
25419;SDS011;13354;48.174;11.566;2023-11-18T12:08:44;1.88;;;0.82;;
25419;SDS011;13354;48.174;11.566;2023-11-18T12:11:11;0.98;;;0.77;;
25419;SDS011;13354;48.174;11.566;2023-11-18T12:13:37;0.70;;;0.70;;
25419;SDS011;13354;48.174;11.566;2023-11-18T12:16:05;2.13;;;0.80;;
25419;SDS011;13354;48.174;11.566;2023-11-18T12:18:34;2.15;;;0.70;;
25419;SDS011;13354;48.174;11.566;2023-11-18T12:21:02;0.80;;;0.55;;
25419;SDS011;13354;48.174;11.566;2023-11-18T12:23:28;5.15;;;2.50;;
25419;SDS011;13354;48.174;11.566;2023-11-18T12:25:55;0.95;;;0.65;;
25419;SDS011;13354;48.174;11.566;2023-11-18T12:28:28;1.38;;;0.68;;
25419;SDS011;13354;48.174;11.566;2023-11-18T12:31:00;1.00;;;0.70;;
25419;SDS011;13354;48.174;11.566;2023-11-18T12:39:02;1.23;;;0.80;;
25419;SDS011;13354;48.174;11.566;2023-11-18T12:41:42;2.15;;;1.00;;
25419;SDS011;13354;48.174;11.566;2023-11-18T12:47:03;2.55;;;1.13;;
25419;SDS011;13354;48.174;11.566;2023-11-18T12:49:39;1.13;;;0.85;;
25419;SDS011;13354;48.174;11.566;2023-11-18T12:52:08;1.10;;;0.85;;
25419;SDS011;13354;48.174;11.566;2023-11-18T12:54:35;1.10;;;0.70;;
25419;SDS011;13354;48.174;11.566;2023-11-18T12:57:03;4.72;;;1.00;;
25419;SDS011;13354;48.174;11.566;2023-11-18T12:59:31;1.33;;;0.70;;
25419;SDS011;13354;48.174;11.566;2023-11-18T13:02:01;1.00;;;0.90;;
25419;SDS011;13354;48.174;11.566;2023-11-18T13:04:29;0.80;;;0.70;;
25419;SDS011;13354;48.174;11.566;2023-11-18T13:06:55;2.25;;;0.80;;
25419;SDS011;13354;48.174;11.566;2023-11-18T13:09:23;1.30;;;0.90;;
25419;SDS011;13354;48.174;11.566;2023-11-18T13:11:54;1.65;;;0.98;;
25419;SDS011;13354;48.174;11.566;2023-11-18T13:14:22;1.10;;;0.85;;
25419;SDS011;13354;48.174;11.566;2023-11-18T13:16:52;2.88;;;1.15;;
25419;SDS011;13354;48.174;11.566;2023-11-18T13:19:27;2.10;;;1.00;;
25419;SDS011;13354;48.174;11.566;2023-11-18T13:22:01;2.42;;;1.10;;
25419;SDS011;13354;48.174;11.566;2023-11-18T13:26:55;1.50;;;1.00;;
25419;SDS011;13354;48.174;11.566;2023-11-18T13:29:22;3.05;;;1.10;;
25419;SDS011;13354;48.174;11.566;2023-11-18T13:31:49;1.50;;;0.93;;
25419;SDS011;13354;48.174;11.566;2023-11-18T13:34:14;1.55;;;0.93;;
25419;SDS011;13354;48.174;11.566;2023-11-18T13:36:40;1.10;;;0.95;;
25419;SDS011;13354;48.174;11.566;2023-11-18T13:39:08;5.57;;;1.38;;
25419;SDS011;13354;48.174;11.566;2023-11-18T13:41:41;3.22;;;2.28;;
25419;SDS011;13354;48.174;11.566;2023-11-18T13:44:07;1.65;;;1.08;;
25419;SDS011;13354;48.174;11.566;2023-11-18T13:46:37;1.27;;;1.13;;
25419;SDS011;13354;48.174;11.566;2023-11-18T13:49:03;1.30;;;1.20;;
25419;SDS011;13354;48.174;11.566;2023-11-18T13:51:30;1.10;;;1.00;;
25419;SDS011;13354;48.174;11.566;2023-11-18T13:53:56;1.58;;;1.02;;
25419;SDS011;13354;48.174;11.566;2023-11-18T13:56:22;1.13;;;1.00;;
25419;SDS011;13354;48.174;11.566;2023-11-18T13:58:48;1.88;;;1.30;;
25419;SDS011;13354;48.174;11.566;2023-11-18T14:01:14;2.35;;;0.90;;
25419;SDS011;13354;48.174;11.566;2023-11-18T14:03:41;2.83;;;1.33;;
25419;SDS011;13354;48.174;11.566;2023-11-18T14:06:09;1.23;;;1.08;;
25419;SDS011;13354;48.174;11.566;2023-11-18T14:08:38;4.97;;;1.10;;
25419;SDS011;13354;48.174;11.566;2023-11-18T14:11:04;3.20;;;1.27;;
25419;SDS011;13354;48.174;11.566;2023-11-18T14:13:30;1.60;;;1.02;;
25419;SDS011;13354;48.174;11.566;2023-11-18T14:15:57;2.53;;;1.40;;
25419;SDS011;13354;48.174;11.566;2023-11-18T14:18:24;1.48;;;1.08;;
25419;SDS011;13354;48.174;11.566;2023-11-18T14:20:49;1.10;;;1.00;;
25419;SDS011;13354;48.174;11.566;2023-11-18T14:23:15;4.63;;;1.50;;
25419;SDS011;13354;48.174;11.566;2023-11-18T14:25:41;1.63;;;1.08;;
25419;SDS011;13354;48.174;11.566;2023-11-18T14:28:06;2.88;;;1.25;;
25419;SDS011;13354;48.174;11.566;2023-11-18T14:30:34;2.90;;;1.33;;
25419;SDS011;13354;48.174;11.566;2023-11-18T14:32:59;3.40;;;1.27;;
25419;SDS011;13354;48.174;11.566;2023-11-18T14:35:25;2.30;;;1.08;;
25419;SDS011;13354;48.174;11.566;2023-11-18T14:37:50;3.58;;;1.50;;
25419;SDS011;13354;48.174;11.566;2023-11-18T14:40:16;1.35;;;1.10;;
25419;SDS011;13354;48.174;11.566;2023-11-18T14:42:41;2.45;;;0.98;;
25419;SDS011;13354;48.174;11.566;2023-11-18T14:45:08;2.25;;;1.17;;
25419;SDS011;13354;48.174;11.566;2023-11-18T14:47:34;1.45;;;1.10;;
25419;SDS011;13354;48.174;11.566;2023-11-18T14:50:00;1.52;;;1.20;;
25419;SDS011;13354;48.174;11.566;2023-11-18T14:52:27;2.53;;;1.10;;
25419;SDS011;13354;48.174;11.566;2023-11-18T14:54:52;0.90;;;0.90;;
25419;SDS011;13354;48.174;11.566;2023-11-18T14:57:17;1.40;;;1.05;;
25419;SDS011;13354;48.174;11.566;2023-11-18T14:59:44;1.75;;;1.20;;